Time;durP1;ratioP1;P1;durP2;ratioP2;P2;SDS_P1;SDS_P2;PMS_P1;PMS_P2;Temp;Humidity;BMP_temperature;BMP_pressure;BME280_temperature;BME280_humidity;BME280_pressure;Samples;Min_cycle;Max_cycle;Signal;HPM_P1;HPM_P2
2021/04/25 00:02:03;;;;;;;0.50;0.40;;;4.90;99.90;;;;;;5066598;28;20256;-80
2021/04/25 00:04:30;;;;;;;0.50;0.40;;;4.90;99.90;;;;;;5066399;28;20214;-79
2021/04/25 00:06:56;;;;;;;0.50;0.40;;;4.80;99.90;;;;;;5067094;28;20666;-78
2021/04/25 00:09:22;;;;;;;0.50;0.40;;;4.80;99.90;;;;;;5067204;28;20221;-78
2021/04/25 00:11:49;;;;;;;0.55;0.55;;;4.70;99.90;;;;;;5066337;28;20198;-77
2021/04/25 00:14:16;;;;;;;0.50;0.40;;;4.60;99.90;;;;;;5066938;28;20193;-76
2021/04/25 00:16:43;;;;;;;0.50;0.40;;;4.60;99.90;;;;;;5066691;28;20196;-79
2021/04/25 00:19:10;;;;;;;0.50;0.40;;;4.60;99.90;;;;;;5067165;28;20205;-78
2021/04/25 00:21:37;;;;;;;0.50;0.40;;;4.60;99.90;;;;;;5065272;28;20202;-78
2021/04/25 00:24:04;;;;;;;0.50;0.40;;;4.60;99.90;;;;;;5067123;28;20255;-79
2021/04/25 00:26:30;;;;;;;1.00;0.98;;;4.50;99.90;;;;;;5066928;28;20283;-78
2021/04/25 00:28:59;;;;;;;0.50;0.40;;;4.40;99.90;;;;;;5066260;28;20202;-78
2021/04/25 00:31:25;;;;;;;0.50;0.40;;;4.40;99.90;;;;;;5069384;28;20220;-79
2021/04/25 00:33:52;;;;;;;0.50;0.40;;;4.40;99.90;;;;;;5067918;28;20233;-79
2021/04/25 00:36:18;;;;;;;0.50;0.40;;;4.40;99.90;;;;;;5066392;28;20196;-76
2021/04/25 00:38:45;;;;;;;0.50;0.40;;;4.30;99.90;;;;;;5066462;28;20211;-80
2021/04/25 00:41:11;;;;;;;0.50;0.40;;;4.40;99.90;;;;;;5065305;28;20277;-77
2021/04/25 00:43:38;;;;;;;0.50;0.40;;;4.30;99.90;;;;;;5066213;28;20221;-78
2021/04/25 00:46:04;;;;;;;1.40;1.25;;;4.30;99.90;;;;;;5065436;28;20201;-79
2021/04/25 00:48:31;;;;;;;0.50;0.40;;;4.20;99.90;;;;;;5065383;28;20201;-80
2021/04/25 00:50:58;;;;;;;0.50;0.40;;;4.20;99.90;;;;;;5065365;28;20224;-80
2021/04/25 00:53:24;;;;;;;0.50;0.40;;;4.10;99.90;;;;;;5064966;28;20360;-78
2021/04/25 00:55:52;;;;;;;0.50;0.40;;;4.10;99.90;;;;;;5066130;28;20545;-78
2021/04/25 00:58:18;;;;;;;0.50;0.40;;;4.10;99.90;;;;;;5065380;28;20199;-79
2021/04/25 01:00:45;;;;;;;0.50;0.40;;;4.10;99.90;;;;;;5065296;28;20697;-80
2021/04/25 01:03:11;;;;;;;1.77;1.65;;;4.10;99.90;;;;;;5067165;28;20215;-80
2021/04/25 01:05:38;;;;;;;0.50;0.40;;;4.10;99.90;;;;;;5067242;28;20194;-80
2021/04/25 01:08:05;;;;;;;0.50;0.40;;;4.00;99.90;;;;;;5068297;28;20192;-80
2021/04/25 01:10:32;;;;;;;0.50;0.40;;;4.10;99.90;;;;;;5067390;28;20261;-80
2021/04/25 01:13:00;;;;;;;0.50;0.40;;;4.00;99.90;;;;;;5068099;28;20196;-80
2021/04/25 01:15:26;;;;;;;0.50;0.40;;;3.90;99.90;;;;;;5067783;28;20596;-80
2021/04/25 01:17:53;;;;;;;0.50;0.40;;;3.80;99.90;;;;;;5068716;28;20238;-80
2021/04/25 01:20:22;;;;;;;0.50;0.40;;;3.80;99.90;;;;;;5067645;28;20219;-80
2021/04/25 01:22:50;;;;;;;0.50;0.40;;;3.70;99.90;;;;;;5071589;28;20784;-80
2021/04/25 01:25:20;;;;;;;0.50;0.40;;;3.70;99.90;;;;;;5072003;28;20195;-78
2021/04/25 01:27:47;;;;;;;0.50;0.40;;;3.70;99.90;;;;;;5072050;28;20187;-81
2021/04/25 01:30:16;;;;;;;0.50;0.40;;;3.60;99.90;;;;;;5071521;28;20225;-81
2021/04/25 01:32:42;;;;;;;0.50;0.40;;;3.60;99.90;;;;;;5070617;28;20251;-81
2021/04/25 01:35:11;;;;;;;0.50;0.40;;;3.60;99.90;;;;;;5072230;28;20221;-81
2021/04/25 01:37:38;;;;;;;0.50;0.40;;;3.60;99.90;;;;;;5071334;28;20212;-80
2021/04/25 01:40:08;;;;;;;0.50;0.40;;;3.50;99.90;;;;;;5072335;28;20227;-82
2021/04/25 01:42:35;;;;;;;0.50;0.47;;;3.60;99.90;;;;;;5071129;28;20210;-80
2021/04/25 01:45:01;;;;;;;0.50;0.40;;;3.50;99.90;;;;;;5071782;28;20223;-80
2021/04/25 01:47:28;;;;;;;0.50;0.40;;;3.50;99.90;;;;;;5070826;28;20256;-80
2021/04/25 01:49:54;;;;;;;0.50;0.40;;;3.60;99.90;;;;;;5071308;28;20301;-80
2021/04/25 01:52:21;;;;;;;0.50;0.50;;;3.60;99.90;;;;;;5073018;28;20205;-79
2021/04/25 01:54:47;;;;;;;0.50;0.40;;;3.70;99.90;;;;;;5072848;28;20199;-81
2021/04/25 01:57:14;;;;;;;0.50;0.40;;;3.70;99.90;;;;;;5069678;28;20201;-81
2021/04/25 01:59:41;;;;;;;0.50;0.40;;;3.80;99.90;;;;;;5070027;28;20229;-80
2021/04/25 02:02:07;;;;;;;0.50;0.40;;;3.80;99.90;;;;;;5069515;28;20184;-81
2021/04/25 02:04:33;;;;;;;1.30;1.30;;;3.80;99.90;;;;;;5070987;28;20284;-80
2021/04/25 02:07:00;;;;;;;0.50;0.40;;;3.90;99.90;;;;;;5067798;28;20260;-80
2021/04/25 02:09:26;;;;;;;0.60;0.40;;;3.90;99.90;;;;;;5067006;28;20209;-79
2021/04/25 02:11:52;;;;;;;0.50;0.40;;;3.90;99.90;;;;;;5067944;28;20281;-80
2021/04/25 02:14:20;;;;;;;0.50;0.40;;;3.80;99.90;;;;;;5066929;28;20202;-79
2021/04/25 02:16:46;;;;;;;0.50;0.40;;;3.80;99.90;;;;;;5071469;28;20210;-80
2021/04/25 02:19:12;;;;;;;3.80;2.97;;;3.80;99.90;;;;;;5073185;28;20217;-80
2021/04/25 02:21:39;;;;;;;0.50;0.40;;;3.80;99.90;;;;;;5069873;28;20221;-82
2021/04/25 02:24:06;;;;;;;0.50;0.40;;;3.80;99.90;;;;;;5071117;28;20219;-79
2021/04/25 02:26:32;;;;;;;0.50;0.40;;;3.70;99.90;;;;;;5070473;28;20195;-80
2021/04/25 02:28:58;;;;;;;0.50;0.40;;;3.70;99.90;;;;;;5071027;28;20559;-80
2021/04/25 02:31:25;;;;;;;0.50;0.40;;;3.70;99.90;;;;;;5069104;28;20227;-80
2021/04/25 02:33:52;;;;;;;1.17;0.93;;;3.70;99.90;;;;;;5071012;28;20192;-80
2021/04/25 02:36:18;;;;;;;0.50;0.40;;;3.70;99.90;;;;;;5073685;28;20722;-80
2021/04/25 02:38:44;;;;;;;0.50;0.40;;;3.80;99.90;;;;;;5076140;28;20202;-80
2021/04/25 02:41:11;;;;;;;0.50;0.40;;;3.80;99.90;;;;;;5076334;28;20263;-78
2021/04/25 02:43:37;;;;;;;0.50;0.45;;;3.80;99.90;;;;;;5076550;28;20244;-80
2021/04/25 02:46:03;;;;;;;0.50;0.40;;;3.80;99.90;;;;;;5076297;28;20203;-80
2021/04/25 02:48:30;;;;;;;0.50;0.40;;;3.90;99.90;;;;;;5076037;28;20187;-80
2021/04/25 02:50:57;;;;;;;0.50;0.40;;;3.80;99.90;;;;;;5076051;28;20227;-79
2021/04/25 02:53:23;;;;;;;0.50;0.40;;;3.80;99.90;;;;;;5076238;28;20188;-82
2021/04/25 02:55:50;;;;;;;0.50;0.40;;;3.80;99.90;;;;;;5075732;28;20214;-80
2021/04/25 02:58:16;;;;;;;0.50;0.40;;;3.70;99.90;;;;;;5075770;28;20252;-80
2021/04/25 03:00:42;;;;;;;0.50;0.40;;;3.70;99.90;;;;;;5074627;28;20243;-80
2021/04/25 03:03:09;;;;;;;0.50;0.40;;;3.80;99.90;;;;;;5073283;28;20217;-81
2021/04/25 03:05:36;;;;;;;0.50;0.50;;;3.80;99.90;;;;;;5073058;28;20196;-80
2021/04/25 03:08:03;;;;;;;0.50;0.40;;;3.70;99.90;;;;;;5071420;28;20196;-80
2021/04/25 03:10:30;;;;;;;0.50;0.40;;;3.70;99.90;;;;;;5070784;28;20305;-80
2021/04/25 03:12:57;;;;;;;0.50;0.40;;;3.60;99.90;;;;;;5070794;28;20184;-81
2021/04/25 03:15:23;;;;;;;0.50;0.40;;;3.60;99.90;;;;;;5072133;28;20192;-80
2021/04/25 03:17:50;;;;;;;0.50;0.40;;;3.60;99.90;;;;;;5069342;28;20196;-80
2021/04/25 03:20:18;;;;;;;0.50;0.40;;;3.50;99.90;;;;;;5071072;28;20219;-80
2021/04/25 03:22:46;;;;;;;0.50;0.40;;;3.40;99.90;;;;;;5070628;28;20203;-81
2021/04/25 03:25:13;;;;;;;0.50;0.40;;;3.40;99.90;;;;;;5073151;28;20185;-81
2021/04/25 03:27:40;;;;;;;0.50;0.40;;;3.30;99.90;;;;;;5075078;28;20413;-80
2021/04/25 03:30:08;;;;;;;0.50;0.47;;;3.30;99.90;;;;;;5074769;28;20222;-79
2021/04/25 03:32:35;;;;;;;0.50;0.45;;;3.20;99.90;;;;;;5074864;28;20188;-81
2021/04/25 03:35:06;;;;;;;0.50;0.40;;;3.20;99.90;;;;;;5075091;28;20198;-80
2021/04/25 03:37:32;;;;;;;0.50;0.40;;;3.20;99.90;;;;;;5074875;28;20194;-79
2021/04/25 03:39:59;;;;;;;0.50;0.40;;;3.20;99.90;;;;;;5073760;28;20219;-80
2021/04/25 03:42:25;;;;;;;0.50;0.50;;;3.30;99.90;;;;;;5070092;28;20195;-80
2021/04/25 03:44:52;;;;;;;0.60;0.60;;;3.30;99.90;;;;;;5068930;28;20303;-80
2021/04/25 03:47:18;;;;;;;0.50;0.40;;;3.30;99.90;;;;;;5069873;28;20197;-80
2021/04/25 03:49:44;;;;;;;0.50;0.40;;;3.20;99.90;;;;;;5068061;28;20216;-81
2021/04/25 03:52:11;;;;;;;0.50;0.40;;;3.20;99.90;;;;;;5068643;28;20266;-79
2021/04/25 03:54:38;;;;;;;0.50;0.40;;;3.30;99.90;;;;;;5069415;28;20399;-80
2021/04/25 03:57:06;;;;;;;0.60;0.55;;;3.30;99.90;;;;;;5069175;28;20200;-81
2021/04/25 03:59:32;;;;;;;0.50;0.40;;;3.40;99.90;;;;;;5068717;28;20207;-81
2021/04/25 04:01:59;;;;;;;0.50;0.40;;;3.40;99.90;;;;;;5068452;28;20191;-81
2021/04/25 04:04:25;;;;;;;0.50;0.40;;;3.40;99.90;;;;;;5067334;28;20222;-79
2021/04/25 04:06:51;;;;;;;0.50;0.40;;;3.40;99.90;;;;;;5064076;28;20196;-78
2021/04/25 04:09:18;;;;;;;0.50;0.40;;;3.40;99.90;;;;;;5063267;28;20332;-79
2021/04/25 04:11:45;;;;;;;0.50;0.40;;;3.50;99.90;;;;;;5062916;28;20295;-79
2021/04/25 04:14:13;;;;;;;0.50;0.50;;;3.50;99.90;;;;;;5062492;28;20256;-79
2021/04/25 04:16:39;;;;;;;0.50;0.40;;;3.60;99.90;;;;;;5063125;28;20198;-80
2021/04/25 04:19:05;;;;;;;0.50;0.40;;;3.60;99.90;;;;;;5063257;28;20203;-79
2021/04/25 04:21:32;;;;;;;0.50;0.40;;;3.70;99.90;;;;;;5063017;28;20270;-79
2021/04/25 04:23:59;;;;;;;0.50;0.50;;;3.80;99.90;;;;;;5062939;28;20219;-79
2021/04/25 04:26:25;;;;;;;1.80;1.70;;;3.90;99.90;;;;;;5062346;28;20192;-79
2021/04/25 04:28:51;;;;;;;0.50;0.40;;;3.90;99.90;;;;;;5062866;28;20203;-80
2021/04/25 04:31:18;;;;;;;0.50;0.40;;;3.90;99.90;;;;;;5061508;28;20273;-79
2021/04/25 04:33:45;;;;;;;0.52;0.52;;;4.00;99.90;;;;;;5062598;28;20223;-80
2021/04/25 04:36:11;;;;;;;0.50;0.40;;;4.00;99.90;;;;;;5068067;28;20195;-80
2021/04/25 04:38:37;;;;;;;0.50;0.40;;;4.00;99.90;;;;;;5055240;28;20757;-77
2021/04/25 04:41:03;;;;;;;0.50;0.40;;;4.10;99.90;;;;;;5055502;28;20329;-78
2021/04/25 04:43:30;;;;;;;0.50;0.40;;;4.10;99.90;;;;;;5058227;28;20268;-79
2021/04/25 04:45:56;;;;;;;0.80;0.80;;;4.20;99.90;;;;;;5060422;28;20283;-78
2021/04/25 04:48:23;;;;;;;0.50;0.40;;;4.30;99.90;;;;;;5057184;28;20200;-74
2021/04/25 04:50:50;;;;;;;0.50;0.40;;;4.40;99.90;;;;;;5056093;28;20780;-78
2021/04/25 04:53:16;;;;;;;0.50;0.40;;;4.50;99.90;;;;;;5057932;28;20191;-75
2021/04/25 04:55:42;;;;;;;0.50;0.40;;;4.50;99.90;;;;;;5055481;28;20198;-78
2021/04/25 04:58:09;;;;;;;0.50;0.40;;;4.60;99.90;;;;;;5055877;28;20252;-79
2021/04/25 05:00:35;;;;;;;0.50;0.40;;;4.60;99.90;;;;;;5055948;28;20222;-77
2021/04/25 05:03:01;;;;;;;0.50;0.40;;;4.70;99.90;;;;;;5046419;28;20623;-77
2021/04/25 05:05:28;;;;;;;0.50;0.40;;;4.70;99.90;;;;;;5055231;28;20241;-77
2021/04/25 05:07:55;;;;;;;0.50;0.40;;;4.80;99.90;;;;;;5055097;28;20222;-77
2021/04/25 05:10:21;;;;;;;0.77;0.77;;;4.90;99.90;;;;;;5054849;28;20555;-77
2021/04/25 05:12:47;;;;;;;0.70;0.63;;;4.80;99.90;;;;;;5054472;28;20612;-78
2021/04/25 05:15:14;;;;;;;0.50;0.40;;;4.80;99.90;;;;;;5055110;28;20226;-77
2021/04/25 05:17:40;;;;;;;0.50;0.40;;;4.90;99.90;;;;;;5054401;28;20480;-77
2021/04/25 05:20:07;;;;;;;0.50;0.40;;;4.90;99.90;;;;;;5055304;28;20283;-77
2021/04/25 05:22:34;;;;;;;0.50;0.40;;;4.90;99.90;;;;;;5058509;28;20718;-79
2021/04/25 05:25:00;;;;;;;0.50;0.40;;;4.90;99.90;;;;;;5061750;28;20289;-78
2021/04/25 05:27:26;;;;;;;0.50;0.40;;;5.10;99.90;;;;;;5060693;28;20279;-77
2021/04/25 05:29:52;;;;;;;0.50;0.50;;;5.10;99.90;;;;;;5080869;22;20244;-79
2021/04/25 05:32:19;;;;;;;0.50;0.50;;;5.20;99.90;;;;;;5024705;28;20631;-77
2021/04/25 05:34:45;;;;;;;0.88;0.88;;;5.20;99.90;;;;;;5031632;28;20191;-79
2021/04/25 05:37:11;;;;;;;0.50;0.43;;;5.30;99.90;;;;;;5032498;28;20221;-78
2021/04/25 05:39:38;;;;;;;0.50;0.40;;;5.30;99.90;;;;;;5031856;28;20813;-78
2021/04/25 05:42:05;;;;;;;0.50;0.40;;;5.40;99.90;;;;;;5031078;28;20280;-76
2021/04/25 05:44:31;;;;;;;0.50;0.40;;;5.40;99.90;;;;;;5031297;28;20588;-77
2021/04/25 05:46:58;;;;;;;0.50;0.40;;;5.50;99.90;;;;;;5031422;28;20222;-77
2021/04/25 05:49:24;;;;;;;0.63;0.63;;;5.60;99.90;;;;;;5031678;28;20199;-77
2021/04/25 05:51:51;;;;;;;0.50;0.40;;;5.70;99.90;;;;;;5030957;28;20722;-76
2021/04/25 05:54:17;;;;;;;0.50;0.40;;;5.70;99.90;;;;;;5031582;28;20199;-77
2021/04/25 05:56:44;;;;;;;0.50;0.40;;;5.80;99.90;;;;;;5031020;28;20206;-77
2021/04/25 05:59:11;;;;;;;0.80;0.50;;;5.80;99.90;;;;;;5031341;28;20199;-76
2021/04/25 06:01:37;;;;;;;0.50;0.40;;;5.90;99.90;;;;;;5030208;28;20229;-77
2021/04/25 06:04:05;;;;;;;1.17;0.60;;;5.90;99.90;;;;;;5031260;28;20207;-79
2021/04/25 06:06:31;;;;;;;0.50;0.40;;;5.90;99.90;;;;;;5031881;28;20212;-77
2021/04/25 06:08:58;;;;;;;0.50;0.50;;;6.00;99.90;;;;;;5035393;28;20282;-77
2021/04/25 06:11:24;;;;;;;0.50;0.50;;;6.00;99.90;;;;;;5034368;28;20289;-77
2021/04/25 06:13:52;;;;;;;0.50;0.40;;;5.90;99.90;;;;;;5035407;28;20665;-78
2021/04/25 06:16:18;;;;;;;2.47;2.38;;;5.90;99.90;;;;;;5034848;28;20203;-80
2021/04/25 06:18:45;;;;;;;0.50;0.40;;;6.00;99.90;;;;;;5034910;28;20191;-79
2021/04/25 06:21:12;;;;;;;0.50;0.40;;;6.00;99.90;;;;;;5033877;28;20219;-78
2021/04/25 06:23:38;;;;;;;1.60;1.50;;;6.00;99.90;;;;;;5034989;28;20217;-78
2021/04/25 06:26:04;;;;;;;0.50;0.40;;;5.90;99.90;;;;;;5035221;28;20286;-78
2021/04/25 06:28:31;;;;;;;0.50;0.40;;;6.00;99.90;;;;;;5034421;28;20200;-77
2021/04/25 06:30:58;;;;;;;0.50;0.50;;;6.10;99.90;;;;;;5034018;28;20315;-76
2021/04/25 06:33:25;;;;;;;0.50;0.40;;;6.20;99.90;;;;;;5034746;28;20275;-78
2021/04/25 06:35:51;;;;;;;1.70;0.68;;;6.30;99.90;;;;;;5034661;28;20199;-77
2021/04/25 06:38:19;;;;;;;0.95;0.95;;;6.30;99.90;;;;;;5034752;28;20195;-78
2021/04/25 06:40:45;;;;;;;0.50;0.40;;;6.40;99.90;;;;;;5034316;28;20215;-77
2021/04/25 06:43:12;;;;;;;0.50;0.43;;;6.40;99.90;;;;;;5034425;28;20592;-77
2021/04/25 06:45:38;;;;;;;0.82;0.60;;;6.60;99.90;;;;;;5034383;28;20247;-77
2021/04/25 06:48:06;;;;;;;0.50;0.40;;;6.60;99.90;;;;;;5034659;28;20196;-79
2021/04/25 06:50:32;;;;;;;1.45;1.45;;;6.50;99.90;;;;;;5034518;28;20273;-77
2021/04/25 06:52:58;;;;;;;0.50;0.40;;;6.60;99.90;;;;;;5034186;28;20203;-79
2021/04/25 06:55:26;;;;;;;0.50;0.40;;;6.60;99.90;;;;;;5034132;28;20290;-79
2021/04/25 06:57:53;;;;;;;0.50;0.40;;;6.60;99.90;;;;;;5034260;28;20202;-78
2021/04/25 07:00:21;;;;;;;0.50;0.40;;;6.70;99.90;;;;;;5033303;28;20727;-79
2021/04/25 07:02:48;;;;;;;0.77;0.77;;;6.70;99.90;;;;;;5033030;28;20203;-79
2021/04/25 07:05:16;;;;;;;0.50;0.40;;;6.80;99.90;;;;;;5033969;28;20629;-77
2021/04/25 07:07:42;;;;;;;0.50;0.40;;;6.90;99.90;;;;;;5034001;28;20199;-77
2021/04/25 07:10:10;;;;;;;0.60;0.60;;;7.00;99.90;;;;;;5033800;28;20801;-77
2021/04/25 07:12:36;;;;;;;0.75;0.70;;;7.00;99.90;;;;;;5033510;28;20199;-77
2021/04/25 07:15:04;;;;;;;0.50;0.50;;;7.10;99.90;;;;;;5033673;28;20282;-76
2021/04/25 07:17:30;;;;;;;2.67;0.68;;;7.20;99.90;;;;;;5033208;28;20195;-79
2021/04/25 07:19:56;;;;;;;0.50;0.40;;;7.20;99.90;;;;;;5032965;28;20672;-79
2021/04/25 07:22:24;;;;;;;0.50;0.40;;;7.10;99.90;;;;;;5033283;28;20253;-79
2021/04/25 07:24:50;;;;;;;0.60;0.50;;;7.20;99.90;;;;;;5033524;28;20315;-77
2021/04/25 07:27:17;;;;;;;0.50;0.40;;;7.40;99.90;;;;;;5033401;28;20198;-77
2021/04/25 07:29:44;;;;;;;0.50;0.40;;;7.50;99.90;;;;;;5033723;28;20206;-79
2021/04/25 07:32:10;;;;;;;0.50;0.40;;;7.60;99.90;;;;;;5031829;28;20238;-78
2021/04/25 07:34:36;;;;;;;0.60;0.55;;;7.70;99.90;;;;;;5033510;28;20560;-78
2021/04/25 07:37:05;;;;;;;1.17;0.90;;;7.80;99.90;;;;;;5033081;28;20269;-78
2021/04/25 07:39:33;;;;;;;17.33;2.35;;;8.00;99.90;;;;;;5033508;28;20203;-78
2021/04/25 07:41:59;;;;;;;0.60;0.50;;;8.00;99.90;;;;;;5032555;28;20230;-78
2021/04/25 07:44:26;;;;;;;0.50;0.40;;;8.10;99.90;;;;;;5033446;28;20219;-79
2021/04/25 07:46:53;;;;;;;0.50;0.40;;;8.00;99.90;;;;;;5032555;28;20679;-78
2021/04/25 07:49:19;;;;;;;0.50;0.50;;;8.00;99.90;;;;;;5033284;28;20195;-78
2021/04/25 07:51:45;;;;;;;0.50;0.50;;;7.90;99.90;;;;;;5032611;28;20225;-78
2021/04/25 07:54:12;;;;;;;0.50;0.40;;;8.00;99.90;;;;;;5033508;28;20195;-77
2021/04/25 07:56:39;;;;;;;0.52;0.50;;;8.00;99.90;;;;;;5033020;28;20661;-77
2021/04/25 07:59:05;;;;;;;0.50;0.40;;;8.10;99.90;;;;;;5033257;28;20195;-79
2021/04/25 08:01:31;;;;;;;1.40;1.05;;;8.30;99.90;;;;;;5031582;28;20285;-78
2021/04/25 08:03:57;;;;;;;0.50;0.40;;;8.40;99.90;;;;;;5032800;28;20213;-77
2021/04/25 08:06:25;;;;;;;0.50;0.40;;;8.40;99.90;;;;;;5032985;28;20199;-78
2021/04/25 08:08:51;;;;;;;0.50;0.40;;;8.70;99.90;;;;;;5033110;28;20218;-78
2021/04/25 08:11:17;;;;;;;1.45;1.33;;;8.90;99.90;;;;;;5032361;28;20223;-78
2021/04/25 08:13:45;;;;;;;0.50;0.40;;;9.40;99.90;;;;;;5032601;28;20203;-80
2021/04/25 08:16:11;;;;;;;0.50;0.40;;;9.80;99.90;;;;;;5032561;28;20282;-78
2021/04/25 08:18:37;;;;;;;0.50;0.40;;;10.00;99.90;;;;;;5032894;28;20208;-78
2021/04/25 08:21:04;;;;;;;0.50;0.47;;;10.20;99.90;;;;;;5032224;28;20251;-78
2021/04/25 08:23:31;;;;;;;0.50;0.45;;;10.50;99.90;;;;;;5032281;28;20220;-79
2021/04/25 08:25:57;;;;;;;1.10;1.10;;;10.80;99.90;;;;;;5032501;28;20205;-78
2021/04/25 08:28:24;;;;;;;0.60;0.43;;;10.90;99.90;;;;;;5032514;28;20211;-77
2021/04/25 08:30:51;;;;;;;0.50;0.50;;;10.80;99.90;;;;;;5031429;28;20229;-77
2021/04/25 08:33:17;;;;;;;0.50;0.40;;;10.90;99.90;;;;;;5032258;28;20186;-79
2021/04/25 08:35:44;;;;;;;0.70;0.60;;;10.90;99.90;;;;;;5032659;28;20198;-77
2021/04/25 08:38:10;;;;;;;0.50;0.40;;;11.10;99.90;;;;;;5032186;28;20201;-78
2021/04/25 08:40:36;;;;;;;0.50;0.43;;;10.90;99.90;;;;;;5032367;28;21150;-79
2021/04/25 08:43:03;;;;;;;0.50;0.40;;;10.40;99.90;;;;;;5032257;28;20193;-78
2021/04/25 08:45:30;;;;;;;0.77;0.77;;;10.10;99.90;;;;;;5032282;28;20308;-77
2021/04/25 08:47:59;;;;;;;0.65;0.63;;;10.10;99.90;;;;;;5031561;28;20287;-78
2021/04/25 08:50:29;;;;;;;0.50;0.40;;;10.20;99.90;;;;;;5031888;28;20720;-78
2021/04/25 08:52:56;;;;;;;2.05;1.15;;;10.60;99.90;;;;;;5031904;28;20246;-77
2021/04/25 08:55:22;;;;;;;1.00;0.77;;;11.50;99.90;;;;;;5032818;28;20190;-78
2021/04/25 08:57:49;;;;;;;0.50;0.40;;;12.00;99.90;;;;;;5031528;28;20889;-78
2021/04/25 09:00:16;;;;;;;0.50;0.40;;;12.80;99.90;;;;;;5032152;28;20732;-78
2021/04/25 09:02:43;;;;;;;0.50;0.40;;;13.20;99.00;;;;;;5030644;28;20616;-78
2021/04/25 09:05:12;;;;;;;0.50;0.40;;;12.80;99.30;;;;;;5031424;28;20219;-80
2021/04/25 09:07:52;;;;;;;0.60;0.55;;;13.20;99.80;;;;;;5032470;28;20199;-79
2021/04/25 09:10:19;;;;;;;0.50;0.40;;;13.50;96.30;;;;;;5031854;28;20685;-78
2021/04/25 09:12:46;;;;;;;0.65;0.65;;;13.50;96.50;;;;;;5031246;28;20726;-78
2021/04/25 09:15:28;;;;;;;0.50;0.40;;;14.00;95.70;;;;;;5032357;28;20230;-79
2021/04/25 09:17:56;;;;;;;0.50;0.40;;;14.80;93.20;;;;;;5031796;28;20228;-78
2021/04/25 09:20:37;;;;;;;0.60;0.50;;;14.80;94.30;;;;;;5031668;28;20468;-80
2021/04/25 09:23:04;;;;;;;0.50;0.50;;;14.70;92.90;;;;;;5031890;28;20450;-78
2021/04/25 09:25:31;;;;;;;0.63;0.57;;;14.70;90.50;;;;;;5032546;28;20576;-78
2021/04/25 09:28:15;;;;;;;12.38;1.25;;;14.30;90.60;;;;;;5031484;28;20491;-78
2021/04/25 09:30:56;;;;;;;0.80;0.77;;;14.30;90.50;;;;;;5031150;28;20234;-78
2021/04/25 09:33:26;;;;;;;0.50;0.40;;;14.50;88.50;;;;;;5031730;28;20188;-77
2021/04/25 09:35:54;;;;;;;0.50;0.40;;;14.50;87.00;;;;;;5031701;28;20488;-79
2021/04/25 09:38:20;;;;;;;1.13;1.03;;;14.70;84.50;;;;;;5032189;28;20234;-80
2021/04/25 09:40:49;;;;;;;0.50;0.40;;;14.70;87.70;;;;;;5032478;28;20458;-80
2021/04/25 09:43:16;;;;;;;0.50;0.40;;;14.50;84.00;;;;;;5034947;28;20449;-79
2021/04/25 09:45:44;;;;;;;15.67;11.13;;;14.50;85.00;;;;;;5035923;28;20452;-78
2021/04/25 09:48:25;;;;;;;0.50;0.40;;;14.50;86.90;;;;;;5036132;28;20532;-80
2021/04/25 09:51:13;;;;;;;0.50;0.30;;;14.50;86.60;;;;;;5035943;28;20226;-76
2021/04/25 09:53:41;;;;;;;1.98;1.75;;;14.40;87.30;;;;;;5034730;28;20441;-78
2021/04/25 09:56:08;;;;;;;0.50;0.40;;;14.10;80.20;;;;;;5035764;28;20200;-78
2021/04/25 09:58:55;;;;;;;2.75;2.55;;;14.10;85.20;;;;;;5035665;28;20199;-78
2021/04/25 10:01:26;;;;;;;0.73;0.50;;;14.70;85.30;;;;;;5034150;28;20735;-79
2021/04/25 10:03:52;;;;;;;2.07;1.27;;;15.50;82.10;;;;;;5035812;28;20467;-78
2021/04/25 10:06:20;;;;;;;0.60;0.60;;;16.20;81.00;;;;;;5036001;28;20939;-78
2021/04/25 10:08:49;;;;;;;0.50;0.40;;;16.80;87.10;;;;;;5036408;28;20445;-78
2021/04/25 10:11:16;;;;;;;0.60;0.50;;;17.00;80.60;;;;;;5035138;28;20462;-78
2021/04/25 10:13:46;;;;;;;0.97;0.60;;;17.40;77.40;;;;;;5035930;28;20440;-79
2021/04/25 10:16:12;;;;;;;1.30;0.80;;;17.00;70.10;;;;;;5034648;28;20481;-81
2021/04/25 10:18:40;;;;;;;1.57;1.37;;;16.60;74.50;;;;;;5035249;28;20441;-78
2021/04/25 10:21:06;;;;;;;1.20;1.10;;;17.20;74.70;;;;;;5034639;28;20994;-78
2021/04/25 10:23:33;;;;;;;0.50;0.30;;;18.30;70.40;;;;;;5035476;28;20473;-78
2021/04/25 10:25:59;;;;;;;0.77;0.77;;;19.10;67.50;;;;;;5035090;28;20972;-76
2021/04/25 10:28:29;;;;;;;0.50;0.30;;;19.10;63.00;;;;;;5035066;28;20449;-79
2021/04/25 10:30:59;;;;;;;0.50;0.30;;;18.80;61.60;;;;;;5034304;28;20478;-78
2021/04/25 10:33:57;;;;;;;0.50;0.30;;;19.30;64.20;;;;;;5035240;28;20434;-78
2021/04/25 10:36:25;;;;;;;0.50;0.40;;;20.70;60.30;;;;;;5035562;28;20441;-77
2021/04/25 10:38:51;;;;;;;0.50;0.30;;;21.90;55.60;;;;;;5036630;28;20850;-81
2021/04/25 10:41:22;;;;;;;0.50;0.30;;;22.80;57.70;;;;;;5035193;28;20469;-80
2021/04/25 10:44:02;;;;;;;0.50;0.50;;;23.30;54.20;;;;;;5035938;28;20816;-79
2021/04/25 10:47:02;;;;;;;0.70;0.50;;;22.50;53.40;;;;;;5035101;28;20533;-79
2021/04/25 10:49:31;;;;;;;0.50;0.40;;;21.50;54.50;;;;;;5035147;28;20422;-80
2021/04/25 10:52:21;;;;;;;0.50;0.30;;;20.70;56.10;;;;;;5034329;28;20522;-78
2021/04/25 10:55:28;;;;;;;0.93;0.80;;;19.40;57.60;;;;;;5034664;28;20840;-78
2021/04/25 10:58:22;;;;;;;0.50;0.30;;;18.30;57.50;;;;;;5034934;28;20442;-77
2021/04/25 11:00:49;;;;;;;0.50;0.30;;;18.00;57.50;;;;;;4988048;28;20526;-79
2021/04/25 11:03:39;;;;;;;0.50;0.40;;;18.10;57.60;;;;;;5032946;28;20441;-80
2021/04/25 11:06:24;;;;;;;0.97;0.50;;;18.30;57.50;;;;;;5035032;28;20965;-77
2021/04/25 11:08:51;;;;;;;0.50;0.40;;;17.40;58.60;;;;;;5034060;28;20501;-78
2021/04/25 11:11:30;;;;;;;0.90;0.50;;;17.30;58.70;;;;;;5034057;28;20549;-78
2021/04/25 11:13:57;;;;;;;2.40;1.47;;;16.60;58.80;;;;;;5034572;28;20468;-78
2021/04/25 11:16:27;;;;;;;1.47;1.37;;;16.60;59.40;;;;;;5033804;28;20449;-78
2021/04/25 11:19:00;;;;;;;0.50;0.40;;;16.60;58.90;;;;;;5034218;28;20532;-78
2021/04/25 11:21:55;;;;;;;0.60;0.47;;;16.70;58.30;;;;;;5034877;28;20855;-78
2021/04/25 11:24:32;;;;;;;0.50;0.30;;;17.70;60.90;;;;;;5033886;28;21069;-78
2021/04/25 11:27:29;;;;;;;0.50;0.40;;;17.80;58.70;;;;;;5034065;28;20447;-78
2021/04/25 11:30:01;;;;;;;0.50;0.37;;;18.00;59.80;;;;;;5033554;28;20452;-79
2021/04/25 11:32:32;;;;;;;0.50;0.30;;;18.50;59.30;;;;;;5107733;23;20498;-80
2021/04/25 11:35:01;;;;;;;0.80;0.53;;;18.80;57.50;;;;;;5083162;28;20509;-79
2021/04/25 11:37:28;;;;;;;2.27;0.73;;;18.30;59.80;;;;;;5083104;28;20838;-79
2021/04/25 11:39:56;;;;;;;0.80;0.80;;;18.60;57.80;;;;;;5082794;28;20956;-80
2021/04/25 11:42:29;;;;;;;1.43;1.17;;;18.60;59.20;;;;;;5064074;28;20464;-78
2021/04/25 11:44:58;;;;;;;0.73;0.63;;;19.30;58.50;;;;;;5067375;28;20483;-79
2021/04/25 11:47:28;;;;;;;1.57;0.93;;;19.60;56.60;;;;;;5077431;28;20430;-79
2021/04/25 11:49:55;;;;;;;0.60;0.40;;;19.90;56.90;;;;;;5064017;28;20440;-79
2021/04/25 11:52:23;;;;;;;0.50;0.33;;;19.70;58.10;;;;;;5062530;28;20465;-79
2021/04/25 11:54:58;;;;;;;0.50;0.30;;;20.40;57.70;;;;;;5062687;28;20449;-79
2021/04/25 11:57:26;;;;;;;0.50;0.30;;;20.40;54.60;;;;;;5063634;28;20428;-79
2021/04/25 11:59:53;;;;;;;0.50;0.40;;;19.90;56.00;;;;;;5062761;28;20787;-79
2021/04/25 12:02:21;;;;;;;0.50;0.40;;;20.30;57.30;;;;;;5062552;28;20457;-77
2021/04/25 12:04:49;;;;;;;0.50;0.43;;;20.30;54.90;;;;;;5062409;28;20475;-79
2021/04/25 12:07:34;;;;;;;0.50;0.30;;;20.40;56.80;;;;;;5061890;28;20441;-78
2021/04/25 12:10:01;;;;;;;0.50;0.30;;;20.40;55.70;;;;;;5063399;28;20417;-79
2021/04/25 12:12:28;;;;;;;0.50;0.40;;;20.90;54.50;;;;;;5063383;28;20884;-79
2021/04/25 12:15:03;;;;;;;0.50;0.40;;;21.20;53.60;;;;;;5065626;28;20904;-79
2021/04/25 12:17:31;;;;;;;0.50;0.30;;;22.20;54.10;;;;;;5074704;28;20431;-79
2021/04/25 12:19:59;;;;;;;0.50;0.30;;;22.10;52.50;;;;;;5083798;28;20451;-79
2021/04/25 12:22:26;;;;;;;1.00;0.60;;;23.10;53.20;;;;;;5081885;28;20472;-79
2021/04/25 12:24:56;;;;;;;0.50;0.30;;;23.20;50.40;;;;;;5082262;28;20479;-79
2021/04/25 12:27:22;;;;;;;0.50;0.30;;;23.00;49.80;;;;;;5083305;28;21037;-79
2021/04/25 12:29:49;;;;;;;0.60;0.50;;;22.80;50.90;;;;;;5081958;28;20450;-79
2021/04/25 12:32:19;;;;;;;0.50;0.30;;;22.20;49.10;;;;;;5081576;28;20452;-79
2021/04/25 12:34:57;;;;;;;0.50;0.40;;;22.90;50.40;;;;;;5082060;28;20542;-79
2021/04/25 12:37:37;;;;;;;0.50;0.30;;;22.90;48.90;;;;;;5082698;28;20958;-79
2021/04/25 12:40:06;;;;;;;0.50;0.30;;;22.80;51.20;;;;;;5081605;28;20443;-80
2021/04/25 12:42:32;;;;;;;3.03;2.87;;;23.40;47.70;;;;;;5081922;28;20464;-79
2021/04/25 12:44:58;;;;;;;0.50;0.30;;;22.90;47.90;;;;;;5080752;28;20484;-76
2021/04/25 12:47:29;;;;;;;0.50;0.30;;;21.80;49.30;;;;;;5075431;28;20456;-79
2021/04/25 12:49:57;;;;;;;0.60;0.50;;;21.80;49.50;;;;;;5082417;28;20436;-79
2021/04/25 12:52:35;;;;;;;0.50;0.30;;;22.20;49.70;;;;;;5081885;28;20456;-79
2021/04/25 12:55:01;;;;;;;0.83;0.83;;;22.80;49.40;;;;;;5083119;28;20477;-78
2021/04/25 12:57:29;;;;;;;0.90;0.50;;;23.80;48.80;;;;;;5083679;28;20444;-79
2021/04/25 12:59:56;;;;;;;0.50;0.43;;;23.80;46.90;;;;;;5082954;28;20451;-79